Flight Track Log - Related Links

Times and Time Zones

All times are in EDT time to prevent confusion due to time zone crossing. See the N566UA flight status page for this flight to view local times or setup timezone preferences in your user account.

Time Position Orientation Groundspeed Altitude Reporting Facility
EDT Latitude Longitude Course Direction KTS MPH feet Rate Location/Type
Sun 07:23:13 PM 28.3833 -81.3333 221° Southwest 219 252 1,900  Level Orlando TRACON
Sun 07:24:13 PM 28.3333 -81.3833 221° Southwest 255 293 4,500 2,800 Climbing Orlando TRACON
Sun 07:25:13 PM 28.3333 -81.4667 270° West 263 303 7,500 2,506 Climbing Orlando TRACON
Sun 07:26:51 PM 28.3500 -81.6072 278° West 292 336 11,100 2,089 Climbing Jacksonville Center
Sun 07:27:51 PM 28.3739 -81.7083 285° West 313 360 13,000 2,182 Climbing Jacksonville Center
Sun 07:28:52 PM 28.4000 -81.8142 286° West 330 380 15,500 2,380 Climbing Jacksonville Center
Sun 07:29:52 PM 28.4239 -81.9247 284° West 348 400 17,800 2,319 Climbing Jacksonville Center
Sun 07:30:51 PM 28.4475 -82.0356 284° West 362 417 20,100 1,966 Climbing Jacksonville Center
Sun 07:31:51 PM 28.4775 -82.1464 287° West 367 422 21,700 1,636 Climbing Jacksonville Center
Sun 07:32:52 PM 28.4969 -82.2689 280° West 381 438 23,400 1,650 Climbing Jacksonville Center
Sun 07:33:51 PM 28.5183 -82.3894 281° West 386 444 25,000 1,563 Climbing Jacksonville Center
Sun 07:34:51 PM 28.5481 -82.5097 286° West 398 458 26,500 1,450 Climbing Jacksonville Center
Sun 07:35:51 PM 28.6358 -82.5992 318° Northwest 398 458 27,900 1,550 Climbing Jacksonville Center
Sun 07:36:51 PM 28.7383 -82.6867 323° Northwest 403 464 29,600 1,500 Climbing Jacksonville Center
Sun 07:37:51 PM 28.8322 -82.7717 322° Northwest 416 479 30,900 1,200 Climbing Jacksonville Center
Sun 07:38:51 PM 28.9222 -82.8569 320° Northwest 422 486 32,000 550 Climbing Jacksonville Center
Sun 07:39:51 PM 29.0119 -82.9400 321° Northwest 422 486 32,000  Level Jacksonville Center
Sun 07:40:51 PM 29.1036 -83.0208 322° Northwest 427 491 32,000  Level Jacksonville Center
Sun 07:41:51 PM 29.1953 -83.1067 321° Northwest 427 491 32,000 -50 Level Jacksonville Center
Sun 07:42:52 PM 29.2869 -83.1903 322° Northwest 427 491 31,900  Descending Jacksonville Center
Sun 07:43:51 PM 29.3808 -83.2764 321° Northwest 427 491 32,000 50 Climbing Jacksonville Center
Sun 07:44:52 PM 29.4619 -83.3528 321° Northwest 427 491 32,000  Level Jacksonville Center
Sun 07:45:51 PM 29.5556 -83.4392 321° Northwest 427 491 32,000  Level Jacksonville Center
Sun 07:46:51 PM 29.6492 -83.5258 321° Northwest 427 491 32,000  Level Jacksonville Center
Sun 07:47:51 PM 29.7425 -83.6125 321° Northwest 427 491 32,000  Level Jacksonville Center
Sun 07:48:51 PM 29.8358 -83.7019 320° Northwest 432 497 32,000  Level Jacksonville Center
Sun 07:49:51 PM 29.9294 -83.7867 322° Northwest 426 490 32,000  Level Jacksonville Center
Sun 07:50:51 PM 30.0225 -83.8736 321° Northwest 426 490 32,000  Level Jacksonville Center
Sun 07:51:51 PM 30.1158 -83.9611 321° Northwest 426 490 32,000  Level Jacksonville Center
Sun 07:52:51 PM 30.2069 -84.0486 320° Northwest 426 490 32,000  Level Jacksonville Center
Sun 07:53:52 PM 30.3022 -84.1364 322° Northwest 426 490 32,000  Level Jacksonville Center
Sun 07:54:51 PM 30.4036 -84.2292 322° Northwest 426 490 32,000  Level Jacksonville Center
Sun 07:55:51 PM 30.4944 -84.3172 320° Northwest 426 490 32,000  Level Jacksonville Center
Sun 07:56:52 PM 30.5706 -84.4197 311° West 426 490 32,000  Level Jacksonville Center
Sun 07:57:51 PM 30.6128 -84.5461 291° West 411 473 32,000  Level Jacksonville Center
Sun 07:58:51 PM 30.6486 -84.6722 288° West 416 479 32,000  Level Jacksonville Center
Sun 07:59:52 PM 30.6867 -84.7986 289° West 416 479 32,000  Level Jacksonville Center
Sun 08:00:51 PM 30.7244 -84.9200 290° West 411 473 32,000  Level Jacksonville Center
Sun 08:01:51 PM 30.7600 -85.0344 290° West 411 473 32,000  Level Jacksonville Center
Sun 08:02:51 PM 30.7892 -85.1656 285° West 411 473 32,000  Level Jacksonville Center
Sun 08:03:51 PM 30.8011 -85.2989 276° West 411 473 32,000  Level Jacksonville Center
Sun 08:04:51 PM 30.8111 -85.4322 275° West 416 479 32,000  Level Jacksonville Center
Sun 08:05:51 PM 30.8250 -85.5681 277° West 422 486 32,000  Level Jacksonville Center
Sun 08:06:51 PM 30.8347 -85.6992 275° West 422 486 32,000  Level Jacksonville Center
Sun 08:07:51 PM 30.8464 -85.8325 276° West 422 486 32,000  Level Jacksonville Center
Sun 08:08:51 PM 30.8556 -85.9706 274° West 422 486 32,000  Level Jacksonville Center
Sun 08:09:52 PM 30.8650 -86.1042 275° West 422 486 32,000  Level Jacksonville Center
Sun 08:10:52 PM 30.8761 -86.2350 276° West 422 486 32,000  Level Jacksonville Center
Sun 08:11:52 PM 30.8872 -86.3711 275° West 422 486 32,000  Level Jacksonville Center
Sun 08:12:52 PM 30.8981 -86.5044 275° West 422 486 32,000  Level Jacksonville Center
Sun 08:13:51 PM 30.9067 -86.6356 274° West 422 486 32,000  Level Jacksonville Center
Sun 08:14:51 PM 30.9214 -86.7719 277° West 422 486 32,000  Level Jacksonville Center
Sun 08:15:51 PM 30.9278 -86.9028 273° West 422 486 32,000  Level Jacksonville Center
Sun 08:16:51 PM 30.9381 -87.0364 275° West 422 486 32,000  Level Jacksonville Center
Sun 08:19:09 PM 30.9592 -87.3531 275° West 414 476 32,000  Level Houston Center
Sun 08:20:11 PM 30.9686 -87.4864 275° West 414 476 32,000  Level Houston Center
Sun 08:21:13 PM 30.9772 -87.6206 274° West 415 478 32,000  Level Houston Center
Sun 08:22:14 PM 30.9844 -87.7558 274° West 411 473 32,000  Level Houston Center
Sun 08:23:16 PM 30.9933 -87.8889 274° West 412 474 32,000  Level Houston Center
Sun 08:24:18 PM 31.0028 -88.0222 275° West 414 476 32,000  Level Houston Center
Sun 08:25:20 PM 31.0264 -88.1531 282° West 412 474 32,000  Level Houston Center
Sun 08:26:21 PM 31.0561 -88.3119 282° West 417 480 32,000  Level Houston Center
Sun 08:27:23 PM 31.0817 -88.4458 283° West 422 486 32,000  Level Houston Center
Sun 08:28:25 PM 31.1058 -88.5775 282° West 417 480 32,000  Level Houston Center
Sun 08:29:27 PM 31.1314 -88.7208 282° West 415 478 32,000  Level Houston Center
Sun 08:30:29 PM 31.1547 -88.8511 282° West 409 471 32,000  Level Houston Center
Sun 08:31:30 PM 31.1764 -88.9703 282° West 415 478 32,000 -49 Level Houston Center
Sun 08:32:32 PM 31.2044 -89.1278 282° West 410 472 31,900  Descending Houston Center
Sun 08:33:34 PM 31.2281 -89.2614 282° West 420 483 32,000 48 Climbing Houston Center
Sun 08:34:36 PM 31.2503 -89.3925 281° West 413 475 32,000  Level Houston Center
Sun 08:35:38 PM 31.2756 -89.5378 282° West 419 482 32,000  Level Houston Center
Sun 08:36:39 PM 31.2919 -89.6567 279° West 421 484 32,000  Level Houston Center
Sun 08:37:41 PM 31.3053 -89.7911 277° West 421 484 32,000 -48 Level Houston Center
Sun 08:38:43 PM 31.3197 -89.9508 276° West 417 480 31,900 -48 Descending Houston Center
Sun 08:39:45 PM 31.3325 -90.0836 276° West 416 479 31,900 49 Level Houston Center
Sun 08:40:46 PM 31.3458 -90.2167 277° West 416 479 32,000 488 Climbing Houston Center
Sun 08:41:48 PM 31.3600 -90.3497 277° West 416 479 32,900 968 Climbing Houston Center
Sun 08:42:50 PM 31.3719 -90.4814 276° West 412 474 34,000 537 Climbing Houston Center
Sun 08:43:51 PM 31.3828 -90.6078 276° West 398 458 34,000  Level Houston Center
Sun 08:44:53 PM 31.3964 -90.7600 276° West 396 456 34,000 -48 Level Houston Center
Sun 08:45:55 PM 31.4069 -90.8883 276° West 399 459 33,900  Descending Houston Center
Sun 08:46:56 PM 31.4192 -91.0167 276° West 400 460 34,000 49 Climbing Houston Center
Sun 08:47:58 PM 31.4317 -91.1494 276° West 397 457 34,000  Level Houston Center
Sun 08:48:59 PM 31.4431 -91.2781 276° West 397 457 34,000  Level Houston Center
Sun 08:50:01 PM 31.4531 -91.4064 275° West 396 456 34,000  Level Houston Center
Sun 08:51:02 PM 31.4636 -91.5350 276° West 397 457 34,000  Level Houston Center
Sun 08:52:04 PM 31.4750 -91.6625 276° West 397 457 34,000  Level Houston Center
Sun 08:53:05 PM 31.4853 -91.7914 275° West 397 457 34,000  Level Houston Center
Sun 08:54:07 PM 31.4983 -91.9439 276° West 396 456 34,000 -49 Level Houston Center
Sun 08:55:08 PM 31.5089 -92.0664 276° West 395 455 33,900  Descending Houston Center
Sun 08:56:10 PM 31.5281 -92.1919 280° West 393 452 34,000 49 Climbing Houston Center
Sun 08:57:11 PM 31.5475 -92.3200 280° West 398 458 34,000  Level Houston Center
Sun 08:58:13 PM 31.5661 -92.4478 280° West 398 458 34,000  Level Houston Center
Sun 08:59:14 PM 31.5847 -92.5756 280° West 400 460 34,000  Level Houston Center
Sun 09:00:15 PM 31.6036 -92.7033 280° West 399 459 34,000  Level Houston Center
Sun 09:01:17 PM 31.6258 -92.8583 280° West 403 464 34,000  Level Houston Center
Sun 09:02:18 PM 31.6453 -92.9878 280° West 404 465 34,000 -49 Level Houston Center
Sun 09:03:19 PM 31.6644 -93.1183 280° West 405 466 33,900  Descending Houston Center
Sun 09:04:21 PM 31.6822 -93.2464 279° West 402 463 34,000 49 Climbing Houston Center
Sun 09:05:22 PM 31.7008 -93.3753 280° West 404 465 34,000  Level Houston Center
Sun 09:06:23 PM 31.7189 -93.5022 280° West 399 459 34,000  Level Houston Center
Sun 09:07:25 PM 31.7394 -93.6564 279° West 403 464 34,000  Level Houston Center
Sun 09:08:26 PM 31.7569 -93.7856 279° West 402 463 34,000  Level Houston Center
Sun 09:09:27 PM 31.7736 -93.9144 279° West 401 461 34,000  Level Houston Center
Sun 09:10:33 PM 31.7906 -94.0456 279° West 407 468 34,000  Level Fort Worth Center
Sun 09:11:32 PM 31.8106 -94.1719 281° West 402 463 34,000  Level Fort Worth Center
Sun 09:12:34 PM 31.8264 -94.3033 278° West 402 463 34,000  Level Fort Worth Center
Sun 09:13:32 PM 31.8419 -94.4300 278° West 408 470 34,000  Level Fort Worth Center
Sun 09:14:33 PM 31.8617 -94.5564 280° West 408 470 34,000  Level Fort Worth Center
Sun 09:15:33 PM 31.8769 -94.6856 278° West 408 470 34,000  Level Fort Worth Center
Sun 09:16:34 PM 31.8944 -94.8197 279° West 408 470 34,000  Level Fort Worth Center
Sun 09:17:34 PM 31.9117 -94.9539 279° West 408 470 34,000  Level Fort Worth Center
Sun 09:18:32 PM 31.9289 -95.0856 279° West 408 470 34,000  Level Fort Worth Center
Sun 09:19:33 PM 31.9439 -95.2197 278° West 408 470 34,000  Level Fort Worth Center
Sun 09:20:32 PM 31.9586 -95.3542 277° West 408 470 34,000  Level Fort Worth Center
Sun 09:21:32 PM 31.9711 -95.4861 276° West 408 470 34,000  Level Fort Worth Center
Sun 09:22:32 PM 31.9733 -95.6353 271° West 408 470 34,000  Level Fort Worth Center
Sun 09:23:33 PM 31.9772 -95.7675 272° West 408 470 34,000  Level Fort Worth Center
Sun 09:24:32 PM 31.9767 -95.9047 270° West 413 475 34,000  Level Fort Worth Center
Sun 09:25:34 PM 31.9803 -96.0222 272° West 413 475 34,000  Level Fort Worth Center
Sun 09:26:34 PM 31.9817 -96.1594 271° West 413 475 34,000  Level Fort Worth Center
Sun 09:27:32 PM 31.9850 -96.2917 272° West 419 482 34,000  Level Fort Worth Center
Sun 09:28:34 PM 31.9861 -96.4286 271° West 419 482 34,000  Level Fort Worth Center
Sun 09:29:34 PM 31.9892 -96.5633 272° West 419 482 34,000  Level Fort Worth Center
Sun 09:30:32 PM 31.9900 -96.7103 270° West 419 482 34,000  Level Fort Worth Center
Sun 09:31:33 PM 31.9908 -96.8425 270° West 419 482 34,000  Level Fort Worth Center
Sun 09:32:33 PM 31.9914 -96.9725 270° West 414 476 34,000  Level Fort Worth Center
Sun 09:33:32 PM 31.9958 -97.1097 272° West 414 476 34,000  Level Fort Worth Center
Sun 09:34:33 PM 31.9961 -97.2419 270° West 414 476 34,000  Level Fort Worth Center
Sun 09:35:33 PM 31.9961 -97.3767 270° West 414 476 34,000  Level Fort Worth Center
Sun 09:36:34 PM 31.9961 -97.5089 270° West 414 476 34,000  Level Fort Worth Center
Sun 09:37:33 PM 31.9981 -97.6289 271° West 414 476 34,000  Level Fort Worth Center
Sun 09:38:33 PM 32.0000 -97.7661 271° West 414 476 34,000  Level Fort Worth Center
Sun 09:39:35 PM 32.0014 -97.8983 271° West 414 476 34,000  Level Fort Worth Center
Sun 09:40:33 PM 32.0031 -98.0331 271° West 414 476 34,000  Level Fort Worth Center
Sun 09:41:34 PM 32.0128 -98.1656 275° West 419 482 34,000  Level Fort Worth Center
Sun 09:42:35 PM 32.0264 -98.3003 277° West 419 482 34,000  Level Fort Worth Center
Sun 09:43:32 PM 32.0378 -98.4453 275° West 419 482 34,000  Level Fort Worth Center
Sun 09:44:34 PM 32.0472 -98.5606 276° West 412 474 34,000  Level Fort Worth Center
Sun 09:45:33 PM 32.0606 -98.7053 276° West 407 468 34,000  Level Fort Worth Center
Sun 09:46:32 PM 32.0717 -98.8378 276° West 412 474 34,000  Level Fort Worth Center
Sun 09:47:33 PM 32.0825 -98.9728 275° West 412 474 34,000  Level Fort Worth Center
Sun 09:48:32 PM 32.0933 -99.1053 276° West 407 468 34,000  Level Fort Worth Center
Sun 09:49:33 PM 32.1039 -99.2381 275° West 407 468 34,000  Level Fort Worth Center
Sun 09:50:34 PM 32.1167 -99.3731 276° West 407 468 34,000  Level Fort Worth Center
Sun 09:51:35 PM 32.1269 -99.5083 275° West 412 474 34,000  Level Fort Worth Center
Sun 09:52:34 PM 32.1375 -99.6289 276° West 412 474 34,000  Level Fort Worth Center
Sun 09:53:32 PM 32.1472 -99.7786 274° West 473 544 34,000  Level Fort Worth Center
Sun 09:54:33 PM 32.1569 -99.9139 275° West 444 511 34,000  Level Fort Worth Center
Sun 09:55:33 PM 32.1689 -100.0492 276° West 427 491 34,000  Level Fort Worth Center
Sun 09:56:35 PM 32.1783 -100.1869 275° West 427 491 34,000  Level Fort Worth Center
Sun 09:57:33 PM 32.1878 -100.3247 275° West 427 491 34,000  Level Fort Worth Center
Sun 09:58:32 PM 32.1825 -100.4619 267° West 421 484 34,000  Level Fort Worth Center
Sun 09:59:34 PM 32.1772 -100.5967 267° West 421 484 34,000  Level Fort Worth Center
Sun 10:00:32 PM 32.1736 -100.7342 268° West 421 484 34,000  Level Fort Worth Center
Sun 10:01:33 PM 32.1658 -100.8689 266° West 421 484 34,000 -50 Level Fort Worth Center
Sun 10:02:33 PM 32.1644 -100.9864 269° West 415 478 33,900  Descending Fort Worth Center
Sun 10:03:32 PM 32.1583 -101.1236 267° West 415 478 34,000 50 Climbing Fort Worth Center
Sun 10:04:33 PM 32.1544 -101.2561 268° West 415 478 34,000  Level Fort Worth Center
Sun 10:05:33 PM 32.1503 -101.3908 268° West 415 478 34,000  Level Fort Worth Center
Sun 10:06:34 PM 32.1419 -101.5228 266° West 415 478 34,000 -50 Level Fort Worth Center
Sun 10:07:33 PM 32.1353 -101.6575 267° West 415 478 33,900  Descending Fort Worth Center
Sun 10:08:32 PM 32.1286 -101.7944 267° West 415 478 34,000 50 Climbing Fort Worth Center
Sun 10:09:33 PM 32.1219 -101.9242 267° West 415 478 34,000  Level Fort Worth Center
Sun 10:10:32 PM 32.1169 -102.0611 268° West 415 478 34,000  Level Fort Worth Center
Sun 10:11:33 PM 32.1097 -102.1983 266° West 420 483 34,000  Level Fort Worth Center
Sun 10:12:32 PM 32.1025 -102.3303 266° West 420 483 34,000  Level Fort Worth Center
Sun 10:13:33 PM 32.0928 -102.4644 265° West 414 476 34,000  Level Fort Worth Center
Sun 10:15:11 PM 32.0808 -102.6758 266° West 411 473 34,000  Level Albuquerque Center
Sun 10:16:13 PM 32.0706 -102.8375 266° West 414 476 34,000  Level Albuquerque Center
Sun 10:17:14 PM 32.0622 -102.9728 266° West 416 479 34,000  Level Albuquerque Center
Sun 10:18:15 PM 32.0556 -103.1064 267° West 414 476 34,000  Level Albuquerque Center
Sun 10:19:16 PM 32.0475 -103.2428 266° West 416 479 34,000  Level Albuquerque Center
Sun 10:20:18 PM 32.0397 -103.3789 266° West 416 479 34,000  Level Albuquerque Center
Sun 10:21:19 PM 32.0314 -103.5139 266° West 415 478 34,000  Level Albuquerque Center
Sun 10:22:20 PM 32.0206 -103.6497 265° West 416 479 34,000  Level Albuquerque Center
Sun 10:23:22 PM 32.0117 -103.7850 266° West 416 479 34,000  Level Albuquerque Center
Sun 10:24:23 PM 32.0067 -103.9208 268° West 415 478 34,000  Level Albuquerque Center
Sun 10:25:24 PM 32.0011 -104.0806 268° West 413 475 34,000  Level Albuquerque Center
Sun 10:26:26 PM 32.0022 -104.2147 271° West 411 473 34,000  Level Albuquerque Center
Sun 10:27:27 PM 32.0033 -104.3492 271° West 410 472 34,000 -49 Level Albuquerque Center
Sun 10:28:28 PM 32.0058 -104.4847 271° West 414 476 33,900  Descending Albuquerque Center
Sun 10:29:30 PM 32.0069 -104.6211 271° West 417 480 34,000 49 Climbing Albuquerque Center
Sun 10:30:31 PM 32.0061 -104.7558 270° West 416 479 34,000  Level Albuquerque Center
Sun 10:31:33 PM 32.0069 -104.8936 270° West 418 481 34,000  Level Albuquerque Center
Sun 10:32:34 PM 32.0081 -105.0586 270° West 420 483 34,000 -49 Level Albuquerque Center
Sun 10:33:35 PM 32.0078 -105.1900 270° West 414 476 33,900  Descending Albuquerque Center
Sun 10:34:37 PM 32.0075 -105.3272 270° West 419 482 34,000 49 Climbing Albuquerque Center
Sun 10:35:38 PM 32.0075 -105.4625 270° West 416 479 34,000  Level Albuquerque Center
Sun 10:36:40 PM 32.0083 -105.5989 270° West 416 479 34,000  Level Albuquerque Center
Sun 10:37:41 PM 32.0081 -105.7344 270° West 416 479 34,000  Level Albuquerque Center
Sun 10:38:42 PM 32.0072 -105.8697 270° West 415 478 34,000  Level Albuquerque Center
Sun 10:39:44 PM 32.0078 -106.0128 270° West 416 479 34,000 -49 Level Albuquerque Center
Sun 10:40:45 PM 32.0058 -106.1506 269° West 421 484 33,900 -49 Descending Albuquerque Center
Sun 10:41:46 PM 32.0058 -106.2875 270° West 418 481 33,900  Level Albuquerque Center
Sun 10:42:48 PM 32.0047 -106.4236 269° West 417 480 33,900 49 Level Albuquerque Center
Sun 10:43:49 PM 32.0364 -106.5817 283° West 419 482 34,000  Climbing Albuquerque Center
Sun 10:44:50 PM 32.0811 -106.7086 293° West 418 481 33,900  Descending Albuquerque Center
Sun 10:45:51 PM 32.1242 -106.8353 292° West 416 479 34,000  Climbing Albuquerque Center
Sun 10:46:53 PM 32.1661 -106.9639 291° West 418 481 33,900  Descending Albuquerque Center
Sun 10:47:54 PM 32.2094 -107.0936 292° West 410 472 34,000 49 Climbing Albuquerque Center
Sun 10:48:55 PM 32.2461 -107.2061 291° West 415 478 34,000  Level Albuquerque Center
Sun 10:49:57 PM 32.2928 -107.3603 290° West 418 481 34,000  Level Albuquerque Center
Sun 10:50:58 PM 32.3325 -107.4850 291° West 414 476 34,000  Level Albuquerque Center
Sun 10:51:59 PM 32.3725 -107.6042 292° West 414 476 34,000  Level Albuquerque Center
Sun 10:53:01 PM 32.4133 -107.7333 291° West 416 479 34,000  Level Albuquerque Center
Sun 10:54:02 PM 32.4550 -107.8667 290° West 418 481 34,000  Level Albuquerque Center
Sun 10:55:03 PM 32.4950 -107.9936 291° West 416 479 34,000  Level Albuquerque Center
Sun 10:56:04 PM 32.5300 -108.1219 288° West 413 475 34,000  Level Albuquerque Center
Sun 10:57:06 PM 32.5697 -108.2769 287° West 412 474 34,000  Level Albuquerque Center
Sun 10:58:07 PM 32.6017 -108.4047 287° West 411 473 34,000  Level Albuquerque Center
Sun 10:59:08 PM 32.6350 -108.5333 287° West 410 472 34,000  Level Albuquerque Center
Sun 11:00:10 PM 32.6681 -108.6628 287° West 411 473 34,000  Level Albuquerque Center
Sun 11:01:11 PM 32.7019 -108.7942 287° West 412 474 34,000  Level Albuquerque Center
Sun 11:02:12 PM 32.7369 -108.9225 288° West 410 472 34,000 -49 Level Albuquerque Center
Sun 11:03:14 PM 32.7689 -109.0519 286° West 408 470 33,900  Descending Albuquerque Center
Sun 11:04:15 PM 32.7983 -109.1828 285° West 407 468 34,000 49 Climbing Albuquerque Center
Sun 11:05:16 PM 32.8306 -109.3119 287° West 407 468 34,000  Level Albuquerque Center
Sun 11:06:18 PM 32.8603 -109.4386 286° West 404 465 34,000  Level Albuquerque Center
Sun 11:07:19 PM 32.8889 -109.5936 282° West 402 463 34,000  Level Albuquerque Center
Sun 11:08:20 PM 32.9125 -109.7217 282° West 401 461 34,000  Level Albuquerque Center
Sun 11:09:22 PM 32.9367 -109.8500 283° West 401 461 34,000  Level Albuquerque Center
Sun 11:10:23 PM 32.9606 -109.9775 283° West 399 459 34,000  Level Albuquerque Center
Sun 11:11:25 PM 32.9850 -110.1058 283° West 402 463 34,000  Level Albuquerque Center
Sun 11:12:26 PM 33.0092 -110.2336 283° West 400 460 34,000  Level Albuquerque Center
Sun 11:13:27 PM 33.0328 -110.3608 283° West 399 459 34,000  Level Albuquerque Center
Sun 11:14:29 PM 33.0600 -110.5156 282° West 401 461 34,000 341 Level Albuquerque Center
Sun 11:15:30 PM 33.0842 -110.6431 283° West 399 459 34,700 976 Climbing Albuquerque Center
Sun 11:16:32 PM 33.1036 -110.7569 282° West 397 457 36,000 1,512 Climbing Albuquerque Center
Sun 11:17:33 PM 33.1303 -110.9056 282° West 385 443 37,800 976 Climbing Albuquerque Center
Sun 11:18:35 PM 33.1528 -111.0283 282° West 380 437 38,000 98 Climbing Albuquerque Center
Sun 11:19:36 PM 33.1736 -111.1531 281° West 383 441 38,000  Level Albuquerque Center
Sun 11:20:38 PM 33.1967 -111.2794 282° West 389 448 38,000  Level Albuquerque Center
Sun 11:21:39 PM 33.2183 -111.4061 282° West 390 449 38,000  Level Albuquerque Center
Sun 11:22:41 PM 33.2403 -111.5350 282° West 395 455 38,000  Level Albuquerque Center
Sun 11:23:42 PM 33.2619 -111.6633 281° West 394 453 38,000  Level Albuquerque Center
Sun 11:24:44 PM 33.2844 -111.7931 282° West 396 456 38,000  Level Albuquerque Center
Sun 11:25:45 PM 33.3064 -111.9225 282° West 396 456 38,000  Level Albuquerque Center
Sun 11:26:46 PM 33.3319 -112.0775 281° West 395 455 38,000  Level Albuquerque Center
Sun 11:27:48 PM 33.3536 -112.2058 281° West 394 453 38,000  Level Albuquerque Center
Sun 11:28:51 PM 33.3744 -112.3356 281° West 396 456 38,000  Level Albuquerque Center
Sun 11:29:51 PM 33.3950 -112.4639 281° West 392 451 38,000  Level Albuquerque Center
Sun 11:30:52 PM 33.4161 -112.5908 281° West 390 449 38,000  Level Albuquerque Center
Sun 11:31:53 PM 33.4378 -112.7222 281° West 386 444 38,000 -49 Level Albuquerque Center
Sun 11:32:55 PM 33.4606 -112.8464 282° West 384 442 37,900  Descending Albuquerque Center
Sun 11:33:56 PM 33.5025 -112.9614 294° West 379 436 38,000  Climbing Albuquerque Center
Sun 11:34:57 PM 33.5450 -113.0769 294° West 380 437 37,900  Descending Albuquerque Center
Sun 11:35:59 PM 33.5850 -113.1917 293° West 377 434 38,000 49 Climbing Albuquerque Center
Sun 11:37:00 PM 33.6256 -113.3072 293° West 377 434 38,000  Level Albuquerque Center
Sun 11:38:01 PM 33.6739 -113.4431 293° West 376 433 38,000  Level Albuquerque Center
Sun 11:39:03 PM 33.7147 -113.5597 293° West 378 435 38,000  Level Albuquerque Center
Sun 11:40:04 PM 33.7567 -113.6781 293° West 382 440 38,000  Level Albuquerque Center
Sun 11:41:05 PM 33.7964 -113.7981 292° West 386 444 38,000  Level Albuquerque Center
Sun 11:42:07 PM 33.8378 -113.9167 293° West 386 444 38,000  Level Albuquerque Center
Sun 11:43:08 PM 33.8789 -114.0386 292° West 389 448 38,000  Level Albuquerque Center
Sun 11:44:09 PM 33.9172 -114.1631 290° West 392 451 38,000  Level Albuquerque Center
Sun 11:45:11 PM 33.9672 -114.2861 296° West 398 458 38,000  Level Albuquerque Center
Sun 11:46:12 PM 34.0061 -114.4067 291° West 394 453 38,000  Level Albuquerque Center
Sun 11:47:13 PM 34.0556 -114.5519 292° West 392 451 38,000  Level Albuquerque Center
Sun 11:48:11 PM 34.0978 -114.6669 294° West 387 445 38,000  Level Los Angeles Center
Sun 11:49:13 PM 34.1069 -114.7953 275° West 389 448 38,000  Level Los Angeles Center
Sun 11:50:15 PM 34.1064 -114.9239 270° West 385 443 38,000 -484 Level Los Angeles Center
Sun 11:51:17 PM 34.1083 -115.0508 271° West 382 440 37,000 -1,016 Descending Los Angeles Center
Sun 11:52:19 PM 34.1089 -115.1794 270° West 384 442 35,900 -1,317 Descending Los Angeles Center
Sun 11:53:20 PM 34.1100 -115.3078 271° West 384 442 34,300 -1,659 Descending Los Angeles Center
Sun 11:54:22 PM 34.1428 -115.4619 284° West 392 451 32,500 -1,597 Descending Los Angeles Center
Sun 11:55:24 PM 34.1789 -115.5897 289° West 400 460 31,000 -1,024 Descending Los Angeles Center
Sun 11:56:25 PM 34.2161 -115.7217 289° West 415 478 30,400 -732 Descending Los Angeles Center
Sun 11:57:27 PM 34.2400 -115.8506 283° West 404 465 29,500 -726 Descending Los Angeles Center
Sun 11:58:29 PM 34.2181 -115.9706 258° West 384 442 28,900 -537 Descending Los Angeles Center
Sun 11:59:30 PM 34.1903 -116.0928 255° West 380 437 28,400 -488 Descending Los Angeles Center
Mon 12:00:32 AM 34.1631 -116.2069 254° West 361 415 27,900 -677 Descending Los Angeles Center
Mon 12:01:34 AM 34.1336 -116.3406 255° West 347 399 27,000 -1,024 Descending Los Angeles Center
Mon 12:02:35 AM 34.1086 -116.4531 255° West 340 391 25,800 -1,512 Descending Los Angeles Center
Mon 12:03:37 AM 34.0831 -116.5617 254° West 338 389 23,900 -1,694 Descending Los Angeles Center
Mon 12:04:39 AM 34.0564 -116.6772 254° West 354 407 22,300 -1,366 Descending Los Angeles Center
Mon 12:05:40 AM 34.0303 -116.7908 255° West 355 409 21,100 -1,171 Descending Los Angeles Center
Mon 12:06:42 AM 34.0036 -116.9025 254° West 351 404 19,900 -1,299 Descending Los Angeles Center
Mon 12:07:54 AM 33.9667 -117.0500 253° West 333 383 18,200 -1,489 Descending Southern California TRACON
Mon 12:08:55 AM 33.9500 -117.1667 260° West 326 375 16,600 -1,190 Descending Southern California TRACON
Mon 12:09:55 AM 33.9333 -117.2667 259° West 319 367 15,800 -895 Descending Southern California TRACON
Mon 12:10:49 AM 33.9333 -117.3500 270° West 315 362 14,900 -1,316 Descending Southern California TRACON
Mon 12:11:49 AM 33.9667 -117.4500 292° West 302 348 13,300 -1,574 Descending Southern California TRACON
Mon 12:13:52 AM 34.0108 -117.6400 286° West 305 351 10,100 -1,239 Descending Los Angeles Center
Mon 12:14:53 AM 34.0025 -117.7328 264° West 285 328 9,500 -1,024 Descending Los Angeles Center
Mon 12:15:55 AM 33.9933 -117.8375 264° West 268 308 8,000 -1,426 Descending Los Angeles Center
Mon 12:16:55 AM 33.9833 -117.9333 263° West 265 305 6,600 -1,150 Descending Southern California TRACON
Mon 12:17:55 AM 33.9667 -118.0167 256° West 257 296 5,700 -905 Descending Southern California TRACON
Mon 12:19:01 AM 33.9667 -118.1000 270° West 231 266 4,700 -960 Descending Southern California TRACON
Mon 12:20:00 AM 33.9600 -118.1625 263° West 229 264 3,700 -1,050 Descending Los Angeles Center
Mon 12:21:01 AM 33.9536 -118.2347 264° West 223 257 2,600 -1,082 Descending Los Angeles Center

Login

Don't have an account? Register now (free) for customized features, flight alerts, and more!